Time;durP1;ratioP1;P1;durP2;ratioP2;P2;SDS_P1;SDS_P2;PMS_P1;PMS_P2;Temp;Humidity;BMP_temperature;BMP_pressure;BME280_temperature;BME280_humidity;BME280_pressure;Samples;Min_cycle;Max_cycle;Signal;HPM_P1;HPM_P2
2023/05/09 00:02:15;;;;;;;2.63;1.25;;;;;;;14.00;100.00;100123.81;5113143;28;20054;-86
2023/05/09 00:04:42;;;;;;;2.80;1.20;;;;;;;13.69;100.00;100082.78;5101436;28;20059;-85
2023/05/09 00:07:09;;;;;;;2.13;1.10;;;;;;;13.42;100.00;100067.72;5114598;28;20056;-86
2023/05/09 00:09:36;;;;;;;3.90;1.40;;;;;;;13.36;100.00;100075.97;5115932;28;20040;-86
2023/05/09 00:12:03;;;;;;;1.83;1.10;;;;;;;13.49;100.00;100091.84;5115009;28;20043;-86
2023/05/09 00:14:32;;;;;;;2.90;1.08;;;;;;;13.40;100.00;100090.63;5113737;28;20471;-86
2023/05/09 00:16:59;;;;;;;2.20;1.15;;;;;;;13.21;100.00;100082.97;5107716;28;20592;-86
2023/05/09 00:19:26;;;;;;;4.93;1.50;;;;;;;13.55;100.00;100136.22;5110815;28;20054;-85
2023/05/09 00:21:53;;;;;;;2.60;1.38;;;;;;;13.59;100.00;100139.50;5115429;28;20109;-86
2023/05/09 00:24:20;;;;;;;3.80;1.40;;;;;;;13.42;100.00;100101.91;5115055;28;20477;-86
2023/05/09 00:26:46;;;;;;;2.25;1.05;;;;;;;13.33;100.00;100083.19;5113426;28;20060;-85
2023/05/09 00:29:13;;;;;;;3.78;1.20;;;;;;;13.38;100.00;100110.91;5115034;28;20074;-85
2023/05/09 00:31:40;;;;;;;3.55;1.17;;;;;;;13.38;100.00;100115.31;5121731;27;20066;-86
2023/05/09 00:34:06;;;;;;;4.47;1.08;;;;;;;13.27;100.00;100094.88;5108541;28;20707;-85
2023/05/09 00:36:33;;;;;;;5.47;1.20;;;;;;;13.43;100.00;100118.53;5114565;28;20058;-85
2023/05/09 00:39:00;;;;;;;1.90;1.02;;;;;;;13.56;100.00;100106.31;5114255;28;20047;-85
2023/05/09 00:41:27;;;;;;;1.83;0.98;;;;;;;13.52;100.00;100093.47;5115264;28;20047;-85
2023/05/09 00:43:53;;;;;;;3.35;1.30;;;;;;;13.80;100.00;100117.16;5113954;28;20504;-85
2023/05/09 00:46:20;;;;;;;4.07;1.20;;;;;;;13.75;100.00;100121.00;5115110;28;20050;-85
2023/05/09 00:48:47;;;;;;;4.55;1.30;;;;;;;13.77;100.00;100108.59;5113550;28;20062;-85
2023/05/09 00:51:15;;;;;;;4.00;1.35;;;;;;;13.65;100.00;100081.25;5105555;28;20044;-85
2023/05/09 00:53:42;;;;;;;2.97;1.17;;;;;;;13.61;100.00;100098.16;5108922;28;20055;-86
2023/05/09 00:56:10;;;;;;;4.60;1.40;;;;;;;13.62;100.00;100091.97;5113569;28;20069;-85
2023/05/09 00:58:37;;;;;;;2.13;1.00;;;;;;;13.74;100.00;100100.88;5114799;28;20056;-85
2023/05/09 01:01:04;;;;;;;2.83;1.20;;;;;;;13.86;100.00;100122.06;5113737;28;20503;-85
2023/05/09 01:03:31;;;;;;;3.70;1.20;;;;;;;13.91;100.00;100113.03;5113382;28;20048;-85
2023/05/09 01:06:09;;;;;;;4.38;1.23;;;;;;;13.77;100.00;100095.44;5114473;28;20043;-85
2023/05/09 01:08:45;;;;;;;3.40;1.40;;;;;;;13.50;100.00;100072.50;5105281;28;20054;-85
2023/05/09 01:11:24;;;;;;;5.30;1.30;;;;;;;13.60;100.00;100072.81;5107466;28;20052;-85
2023/05/09 01:14:28;;;;;;;2.50;1.15;;;;;;;14.05;100.00;100126.19;5121925;27;20386;-85
2023/05/09 01:17:01;;;;;;;4.38;1.40;;;;;;;14.09;100.00;100129.47;5115083;28;20057;-86
2023/05/09 01:19:46;;;;;;;3.72;1.70;;;;;;;14.13;100.00;100129.19;5113292;28;20048;-85
2023/05/09 01:22:15;;;;;;;5.22;1.60;;;;;;;13.96;100.00;100108.31;5105934;28;20040;-86
2023/05/09 01:25:00;;;;;;;4.18;1.42;;;;;;;14.07;100.00;100119.03;5113049;28;20044;-85
2023/05/09 01:27:45;;;;;;;3.38;1.30;;;;;;;14.07;100.00;100118.19;5109348;28;20447;-85
2023/05/09 01:30:14;;;;;;;3.28;1.38;;;;;;;13.75;100.00;100076.28;5113212;28;20046;-84
2023/05/09 01:32:43;;;;;;;2.35;1.20;;;;;;;13.90;100.00;100095.53;5113394;28;20131;-84
2023/05/09 01:35:13;;;;;;;3.47;1.42;;;;;;;13.84;100.00;100084.44;5100365;28;20056;-85
2023/05/09 01:37:42;;;;;;;2.88;1.40;;;;;;;13.77;100.00;100077.88;5112941;28;20374;-85
2023/05/09 01:40:15;;;;;;;2.67;1.30;;;;;;;14.00;100.00;100102.75;5112828;28;20126;-85
2023/05/09 01:42:50;;;;;;;4.22;1.40;;;;;;;13.69;100.00;100051.19;5113496;28;20378;-85
2023/05/09 01:45:18;;;;;;;5.05;1.60;;;;;;;13.58;100.00;100043.97;5100097;28;20059;-86
2023/05/09 01:47:47;;;;;;;3.15;1.17;;;;;;;13.69;100.00;100067.00;5109088;28;20056;-85
2023/05/09 01:50:17;;;;;;;3.78;1.20;;;;;;;14.01;100.00;100096.56;5106120;28;20054;-86
2023/05/09 01:52:47;;;;;;;2.63;1.33;;;;;;;13.90;100.00;100066.59;5109638;28;20040;-85
2023/05/09 01:55:15;;;;;;;3.17;1.27;;;;;;;13.89;100.00;100065.75;5113345;28;20489;-85
2023/05/09 01:57:44;;;;;;;1.90;1.00;;;;;;;14.03;100.00;100084.16;5112552;28;20058;-85
2023/05/09 02:00:13;;;;;;;3.28;1.35;;;;;;;13.98;100.00;100088.03;5113021;28;20048;-86
2023/05/09 02:02:40;;;;;;;3.58;1.48;;;;;;;13.96;100.00;100089.91;5111877;28;20079;-85
2023/05/09 02:05:09;;;;;;;3.03;1.25;;;;;;;13.72;100.00;100063.31;5092846;28;20107;-86
2023/05/09 02:07:37;;;;;;;2.47;1.23;;;;;;;13.87;100.00;100088.69;5105355;28;20063;-86
2023/05/09 02:10:07;;;;;;;3.97;1.40;;;;;;;13.44;100.00;100033.44;5112786;28;20446;-85
2023/05/09 02:12:34;;;;;;;2.70;1.30;;;;;;;13.54;100.00;100045.06;5112291;28;20043;-86
2023/05/09 02:15:01;;;;;;;4.10;1.70;;;;;;;13.78;100.00;100082.19;5111868;28;20058;-86
2023/05/09 02:17:29;;;;;;;5.20;1.80;;;;;;;13.56;100.00;100045.81;5108588;28;20056;-86
2023/05/09 02:19:56;;;;;;;7.80;1.73;;;;;;;13.68;100.00;100060.03;5108231;28;20453;-85
2023/05/09 02:22:23;;;;;;;6.85;1.98;;;;;;;13.54;100.00;100033.72;5112364;28;20052;-86
2023/05/09 02:24:50;;;;;;;6.00;1.80;;;;;;;13.73;100.00;100086.91;5113095;28;20054;-86
2023/05/09 02:27:18;;;;;;;5.07;1.95;;;;;;;13.20;100.00;100019.97;5113063;28;20499;-86
2023/05/09 02:29:49;;;;;;;6.22;2.28;;;;;;;13.59;100.00;100079.00;5112931;28;20511;-86
2023/05/09 02:32:23;;;;;;;7.40;2.50;;;;;;;13.40;100.00;100045.94;5112500;28;20447;-85
2023/05/09 02:34:51;;;;;;;5.70;2.25;;;;;;;13.34;100.00;100022.63;5112136;28;20052;-86
2023/05/09 02:37:20;;;;;;;7.00;2.42;;;;;;;13.48;100.00;100038.41;5101261;28;20051;-86
2023/05/09 02:39:47;;;;;;;6.13;2.33;;;;;;;13.33;100.00;100028.81;5112304;28;20058;-85
2023/05/09 02:42:20;;;;;;;6.03;2.50;;;;;;;13.25;100.00;100037.13;5113817;28;20052;-84
2023/05/09 02:44:47;;;;;;;6.22;2.42;;;;;;;13.09;100.00;100017.97;5116407;28;20051;-86
2023/05/09 02:47:14;;;;;;;5.10;1.90;;;;;;;13.27;100.00;100051.03;5116518;28;20027;-85
2023/05/09 02:49:40;;;;;;;6.22;2.42;;;;;;;13.22;100.00;100029.44;5116219;28;20052;-86
2023/05/09 02:52:07;;;;;;;5.88;2.17;;;;;;;13.23;100.00;100023.25;5117065;28;20067;-86
2023/05/09 02:54:34;;;;;;;5.38;1.90;;;;;;;13.19;100.00;100029.63;5116148;28;20054;-86
2023/05/09 02:57:00;;;;;;;5.75;2.17;;;;;;;13.40;100.00;100060.84;5117396;28;20055;-86
2023/05/09 02:59:27;;;;;;;5.10;2.00;;;;;;;13.15;100.00;100036.00;5117184;28;20047;-85
2023/05/09 03:01:54;;;;;;;4.55;1.70;;;;;;;13.35;100.00;100058.50;5117528;28;20043;-86
2023/05/09 03:04:21;;;;;;;4.97;2.00;;;;;;;13.06;100.00;100028.66;5116049;28;20127;-85
2023/05/09 03:06:48;;;;;;;4.38;1.83;;;;;;;13.17;100.00;100046.41;5102526;28;20053;-86
2023/05/09 03:09:15;;;;;;;5.57;1.70;;;;;;;13.41;100.00;100073.06;5116174;28;20055;-85
2023/05/09 03:11:42;;;;;;;5.00;1.85;;;;;;;13.23;100.00;100043.44;5117418;28;20089;-85
2023/05/09 03:14:10;;;;;;;5.25;2.00;;;;;;;13.20;100.00;100046.25;5104560;28;20051;-85
2023/05/09 03:16:36;;;;;;;4.65;1.65;;;;;;;13.23;100.00;100046.91;5113372;28;20066;-86
2023/05/09 03:19:03;;;;;;;3.25;1.48;;;;;;;13.12;100.00;100020.44;5108062;28;20048;-86
2023/05/09 03:21:30;;;;;;;4.65;1.42;;;;;;;13.27;100.00;100047.56;5111050;28;20055;-86
2023/05/09 03:23:57;;;;;;;5.63;1.90;;;;;;;13.29;100.00;100035.16;5115324;28;20052;-86
2023/05/09 03:26:25;;;;;;;4.43;1.70;;;;;;;13.36;100.00;100051.47;5116260;28;20047;-86
2023/05/09 03:28:52;;;;;;;3.00;1.30;;;;;;;13.26;100.00;100030.97;5100768;28;20044;-86
2023/05/09 03:31:18;;;;;;;4.03;1.60;;;;;;;13.22;100.00;100010.19;5116366;28;20055;-86
2023/05/09 03:33:45;;;;;;;4.10;1.80;;;;;;;13.32;100.00;100014.00;5115407;28;20043;-85
2023/05/09 03:36:13;;;;;;;3.58;1.50;;;;;;;13.33;100.00;100006.94;5115820;28;20043;-86
2023/05/09 03:38:40;;;;;;;3.33;1.50;;;;;;;13.36;100.00;100009.41;5115953;28;20047;-86
2023/05/09 03:41:07;;;;;;;4.53;1.83;;;;;;;13.40;100.00;100003.00;5116889;28;20100;-86
2023/05/09 03:43:33;;;;;;;4.10;1.67;;;;;;;13.51;100.00;100016.34;5116588;28;20047;-85
2023/05/09 03:46:00;;;;;;;4.40;1.70;;;;;;;13.61;100.00;100042.94;5115944;28;20047;-86
2023/05/09 03:48:27;;;;;;;5.10;1.88;;;;;;;13.59;100.00;100026.41;5114841;28;20050;-85
2023/05/09 03:50:53;;;;;;;3.92;1.58;;;;;;;13.90;100.00;100069.22;5116706;28;20093;-85
2023/05/09 03:53:20;;;;;;;4.28;1.70;;;;;;;13.61;100.00;100016.63;5114792;28;20405;-85
2023/05/09 03:55:47;;;;;;;4.53;1.70;;;;;;;13.72;100.00;100037.84;5115025;28;20385;-85
2023/05/09 03:58:14;;;;;;;4.45;1.63;;;;;;;13.72;100.00;100022.06;5105952;28;20382;-86
2023/05/09 04:00:41;;;;;;;5.72;1.88;;;;;;;13.98;100.00;100075.69;5116402;28;20060;-86
2023/05/09 04:03:08;;;;;;;4.40;1.70;;;;;;;13.68;100.00;100021.41;5111009;28;20044;-86
2023/05/09 04:05:35;;;;;;;4.75;1.50;;;;;;;13.64;100.00;100009.38;5095613;28;20150;-86
2023/05/09 04:08:02;;;;;;;4.80;1.63;;;;;;;14.05;100.00;100071.75;5115263;28;20502;-86
2023/05/09 04:10:30;;;;;;;3.60;1.50;;;;;;;14.10;100.00;100076.72;5116585;28;20046;-86
2023/05/09 04:12:57;;;;;;;3.80;1.60;;;;;;;13.91;100.00;100040.19;5113954;28;20755;-86
2023/05/09 04:15:24;;;;;;;3.67;1.45;;;;;;;14.10;100.00;100062.72;5115658;28;20473;-86
2023/05/09 04:17:51;;;;;;;3.47;1.52;;;;;;;14.22;100.00;100072.50;5112636;28;20056;-87
2023/05/09 04:20:18;;;;;;;3.55;1.40;;;;;;;14.16;100.00;100073.69;5115905;27;20043;-86
2023/05/09 04:22:45;;;;;;;3.20;1.40;;;;;;;14.24;100.00;100078.50;5114654;28;20048;-86
2023/05/09 04:25:13;;;;;;;5.10;1.73;;;;;;;13.88;100.00;100021.94;5097420;28;20052;-87
2023/05/09 04:27:40;;;;;;;3.97;1.52;;;;;;;13.98;100.00;100038.00;5107966;28;20048;-86
2023/05/09 04:30:08;;;;;;;4.38;1.55;;;;;;;13.89;100.00;100014.91;5115436;28;20130;-86
2023/05/09 04:32:35;;;;;;;4.93;1.73;;;;;;;14.06;100.00;100051.53;5115276;28;20097;-86
2023/05/09 04:35:03;;;;;;;4.15;1.73;;;;;;;14.12;100.00;100056.41;5114582;28;20052;-86
2023/05/09 04:37:31;;;;;;;7.35;1.50;;;;;;;14.17;100.00;100071.94;5111088;28;20048;-87
2023/05/09 04:39:58;;;;;;;5.60;1.75;;;;;;;14.29;100.00;100080.81;5110927;28;20418;-87
2023/05/09 04:42:25;;;;;;;6.70;2.60;;;;;;;13.89;100.00;100049.13;5099747;28;20055;-87
2023/05/09 04:44:52;;;;;;;6.75;2.25;;;;;;;13.76;100.00;100033.25;5114647;28;20043;-88
2023/05/09 04:47:19;;;;;;;6.32;2.53;;;;;;;13.63;100.00;100007.72;5111150;28;20056;-87
2023/05/09 04:49:45;;;;;;;6.82;2.72;;;;;;;13.86;100.00;100042.25;5105734;28;20496;-88
2023/05/09 04:52:12;;;;;;;7.05;2.67;;;;;;;13.84;100.00;100039.72;5116068;28;20058;-88
2023/05/09 04:54:39;;;;;;;7.03;2.42;;;;;;;13.57;100.00;99991.47;5114974;28;20052;-88
2023/05/09 04:57:06;;;;;;;5.28;2.00;;;;;;;13.65;100.00;100007.59;5112935;28;20048;-88
2023/05/09 04:59:43;;;;;;;6.60;2.40;;;;;;;13.59;100.00;99985.16;5114691;28;20054;-88
2023/05/09 05:02:10;;;;;;;6.28;2.40;;;;;;;14.03;100.00;100072.78;5113665;28;20400;-88
2023/05/09 05:04:37;;;;;;;5.65;2.28;;;;;;;13.82;100.00;100051.28;5111788;28;20039;-87
2023/05/09 05:07:04;;;;;;;5.72;2.20;;;;;;;13.80;100.00;100046.13;5114796;28;20418;-89
2023/05/09 05:09:31;;;;;;;5.68;2.00;;;;;;;13.81;100.00;100047.81;5110243;28;20056;-89
2023/05/09 05:11:57;;;;;;;6.63;2.63;;;;;;;13.74;100.00;100017.56;5106034;28;20526;-88
2023/05/09 05:14:28;;;;;;;4.80;1.77;;;;;;;13.81;100.00;100052.22;5113254;28;20044;-87
2023/05/09 05:16:54;;;;;;;8.23;2.55;;;;;;;13.56;100.00;100008.16;5114321;28;20055;-87
2023/05/09 05:19:21;;;;;;;4.38;1.70;;;;;;;13.72;100.00;100043.09;5113048;28;20063;-86
2023/05/09 05:21:48;;;;;;;6.38;1.83;;;;;;;13.89;100.00;100062.28;5103947;28;20122;-86
2023/05/09 05:24:14;;;;;;;5.60;1.90;;;;;;;13.95;100.00;100056.63;5107441;28;20661;-87
2023/05/09 05:26:41;;;;;;;5.68;1.75;;;;;;;13.75;100.00;100026.28;5104606;28;20058;-87
2023/05/09 05:29:08;;;;;;;5.38;1.77;;;;;;;13.72;100.00;100006.28;5110715;28;20048;-86
2023/05/09 05:31:35;;;;;;;5.45;1.90;;;;;;;13.72;100.00;100026.47;5100139;28;20043;-87
2023/05/09 05:34:02;;;;;;;3.97;1.55;;;;;;;13.79;100.00;100030.41;5101122;28;20074;-86
2023/05/09 05:36:28;;;;;;;4.47;1.50;;;;;;;13.68;100.00;100007.41;5110340;28;20048;-86
2023/05/09 05:38:55;;;;;;;4.45;1.40;;;;;;;13.77;100.00;100009.47;5113334;28;20324;-87
2023/05/09 05:41:22;;;;;;;4.78;1.80;;;;;;;13.85;100.00;100012.47;5112437;28;20048;-86
2023/05/09 05:43:49;;;;;;;4.20;1.40;;;;;;;13.94;100.00;100018.94;5107232;28;20047;-87
2023/05/09 05:46:18;;;;;;;4.00;1.40;;;;;;;13.88;100.00;100002.69;5111694;28;20502;-86
2023/05/09 05:48:45;;;;;;;4.15;1.20;;;;;;;13.99;100.00;100023.94;5106661;28;20044;-86
2023/05/09 05:51:14;;;;;;;4.13;1.40;;;;;;;13.96;100.00;100003.91;5102675;28;20451;-87
2023/05/09 05:53:42;;;;;;;3.85;1.20;;;;;;;14.15;100.00;100026.44;5112869;28;20517;-85
2023/05/09 05:56:08;;;;;;;2.50;1.20;;;;;;;14.23;100.00;100050.47;5108447;28;20066;-86
2023/05/09 05:58:35;;;;;;;3.53;1.20;;;;;;;14.21;100.00;100034.75;5110757;28;20051;-86
2023/05/09 06:01:02;;;;;;;2.05;1.00;;;;;;;14.11;100.00;100011.75;5113324;28;20050;-87
2023/05/09 06:03:28;;;;;;;1.92;1.02;;;;;;;14.40;100.00;100046.75;5113545;27;20043;-86
2023/05/09 06:05:56;;;;;;;2.85;1.30;;;;;;;14.40;100.00;100034.44;5109087;28;20048;-87
2023/05/09 06:08:22;;;;;;;3.58;1.20;;;;;;;14.54;100.00;100061.69;5112207;28;20130;-86
2023/05/09 06:10:49;;;;;;;3.95;1.30;;;;;;;14.44;100.00;100041.19;5113512;28;20092;-87
2023/05/09 06:13:16;;;;;;;3.08;1.10;;;;;;;14.40;100.00;100031.78;5111672;28;20077;-86
2023/05/09 06:15:43;;;;;;;3.88;1.40;;;;;;;14.20;100.00;100009.38;5112389;28;20118;-85
2023/05/09 06:18:10;;;;;;;3.28;1.33;;;;;;;14.23;100.00;100008.34;5101659;28;20401;-86
2023/05/09 06:20:37;;;;;;;3.47;1.17;;;;;;;14.41;100.00;100040.53;5112138;28;20043;-85
2023/05/09 06:23:03;;;;;;;1.45;0.93;;;;;;;14.33;100.00;100027.88;5106154;28;20491;-86
2023/05/09 06:25:30;;;;;;;3.47;1.27;;;;;;;14.34;100.00;100021.66;5102508;28;20135;-86
2023/05/09 06:27:57;;;;;;;2.63;1.30;;;;;;;14.31;100.00;100010.50;5111267;28;20032;-86
2023/05/09 06:30:24;;;;;;;2.78;1.20;;;;;;;14.73;100.00;100067.47;5102409;28;20048;-86
2023/05/09 06:32:53;;;;;;;2.60;1.05;;;;;;;14.66;100.00;100050.38;5106921;28;20405;-85
2023/05/09 06:35:20;;;;;;;2.90;1.20;;;;;;;14.78;100.00;100059.25;5112751;28;20134;-85
2023/05/09 06:37:47;;;;;;;2.80;1.20;;;;;;;14.71;100.00;100048.25;5111932;28;20052;-84
2023/05/09 06:40:15;;;;;;;3.60;1.25;;;;;;;14.37;100.00;100012.72;5110258;28;20047;-85
2023/05/09 06:42:43;;;;;;;2.15;1.00;;;;;;;14.53;100.00;100036.25;5110677;28;20047;-85
2023/05/09 06:45:10;;;;;;;5.43;1.30;;;;;;;14.56;100.00;100028.16;5106385;28;20130;-85
2023/05/09 06:47:37;;;;;;;4.45;1.35;;;;;;;14.70;100.00;100035.22;5099583;28;20054;-86
2023/05/09 06:50:05;;;;;;;1.75;1.00;;;;;;;14.59;100.00;100015.69;5112105;28;20043;-85
2023/05/09 06:52:31;;;;;;;2.58;1.00;;;;;;;14.64;100.00;100015.34;5113191;28;20044;-85
2023/05/09 06:54:58;;;;;;;4.75;1.10;;;;;;;14.84;100.00;100032.50;5108249;28;20048;-85
2023/05/09 06:57:25;;;;;;;4.32;1.58;;;;;;;14.78;100.00;100025.84;5099414;28;20052;-85
2023/05/09 06:59:51;;;;;;;2.90;1.23;;;;;;;14.82;100.00;100021.22;5101743;28;20055;-89
2023/05/09 07:02:19;;;;;;;3.33;1.10;;;;;;;15.03;100.00;100042.63;5114402;28;20040;-88
2023/05/09 07:04:46;;;;;;;3.88;1.27;;;;;;;15.11;100.00;100031.59;5113544;28;20047;-88
2023/05/09 07:07:12;;;;;;;2.70;1.10;;;;;;;15.08;100.00;100000.97;5113141;28;20047;-87
2023/05/09 07:09:39;;;;;;;3.38;1.20;;;;;;;15.15;100.00;100014.59;5112784;28;20058;-86
2023/05/09 07:12:06;;;;;;;2.10;1.02;;;;;;;15.04;100.00;100006.59;5113818;28;20096;-88
2023/05/09 07:14:33;;;;;;;2.53;1.02;;;;;;;15.20;100.00;100030.97;5107635;28;20056;-87
2023/05/09 07:16:59;;;;;;;3.28;1.20;;;;;;;15.22;100.00;100031.69;5103859;28;20056;-87
2023/05/09 07:19:46;;;;;;;5.38;1.42;;;;;;;15.38;100.00;100053.41;5098205;28;20059;-87
2023/05/09 07:22:13;;;;;;;3.20;1.20;;;;;;;15.21;100.00;100006.28;5092071;28;20046;-87
2023/05/09 07:24:40;;;;;;;1.90;0.95;;;;;;;15.19;100.00;100003.75;5121165;28;20408;-87
2023/05/09 07:27:06;;;;;;;1.30;0.82;;;;;;;15.22;100.00;100000.03;5114197;28;20040;-86
2023/05/09 07:29:33;;;;;;;2.83;1.13;;;;;;;15.38;100.00;100010.38;5115073;28;20048;-87
2023/05/09 07:32:00;;;;;;;1.98;0.98;;;;;;;15.75;100.00;100043.00;5112600;28;20048;-87
2023/05/09 07:34:27;;;;;;;3.05;1.10;;;;;;;15.78;100.00;100009.44;5104947;28;20448;-87
2023/05/09 07:36:54;;;;;;;1.70;1.00;;;;;;;16.35;100.00;100021.19;5103914;28;20054;-86
2023/05/09 07:39:21;;;;;;;3.17;1.20;;;;;;;16.74;100.00;100043.81;5117971;27;20055;-87
2023/05/09 07:41:48;;;;;;;2.75;1.10;;;;;;;17.33;100.00;100003.22;5103266;28;20046;-87
2023/05/09 07:44:15;;;;;;;2.33;1.10;;;;;;;17.64;100.00;99969.09;5116990;28;20052;-87
2023/05/09 07:46:41;;;;;;;3.22;1.00;;;;;;;18.08;100.00;99985.03;5117183;28;20504;-87
2023/05/09 07:49:08;;;;;;;2.75;1.02;;;;;;;18.54;100.00;99986.59;5111266;28;20500;-88
2023/05/09 07:51:35;;;;;;;3.58;1.42;;;;;;;18.68;100.00;100003.97;5107309;28;20039;-88
2023/05/09 07:54:02;;;;;;;4.30;1.10;;;;;;;19.12;100.00;100028.63;5111234;28;20044;-88
2023/05/09 07:56:29;;;;;;;1.50;0.80;;;;;;;18.80;100.00;100013.56;5116712;28;20047;-88
2023/05/09 07:58:56;;;;;;;3.80;0.90;;;;;;;18.38;100.00;100019.66;5116713;28;20409;-88
2023/05/09 08:01:23;;;;;;;1.30;0.77;;;;;;;18.10;100.00;100006.97;5098464;28;20044;-88
2023/05/09 08:03:49;;;;;;;2.45;0.80;;;;;;;17.96;100.00;99987.72;5107766;28;20055;-88
2023/05/09 08:06:16;;;;;;;1.80;0.77;;;;;;;17.75;100.00;99979.66;5115708;28;20075;-88
2023/05/09 08:08:43;;;;;;;3.63;0.77;;;;;;;17.88;100.00;99960.16;5106836;28;20048;-88
2023/05/09 08:11:10;;;;;;;1.27;0.70;;;;;;;17.63;100.00;100005.28;5115833;28;20052;-88
2023/05/09 08:13:37;;;;;;;2.65;1.00;;;;;;;17.86;100.00;100001.81;5114967;28;20047;-88
2023/05/09 08:16:04;;;;;;;4.47;1.15;;;;;;;17.26;100.00;99980.88;5115605;28;20054;-87
2023/05/09 08:18:31;;;;;;;4.53;1.00;;;;;;;17.34;100.00;100001.44;5114911;28;20047;-88
2023/05/09 08:20:58;;;;;;;5.30;0.95;;;;;;;17.34;100.00;99965.25;5116411;28;20551;-88
2023/05/09 08:23:25;;;;;;;3.22;0.90;;;;;;;17.07;100.00;99944.44;5110655;28;20063;-89
2023/05/09 08:25:53;;;;;;;3.17;1.00;;;;;;;17.59;100.00;100030.31;5102818;28;20055;-89
2023/05/09 08:28:23;;;;;;;5.20;1.40;;;;;;;17.04;100.00;99995.75;5114221;28;20052;-89
2023/05/09 08:30:50;;;;;;;5.28;0.90;;;;;;;16.96;100.00;99990.19;5110485;28;20396;-88
2023/05/09 08:33:18;;;;;;;2.45;1.00;;;;;;;16.92;100.00;99972.03;5114821;28;20398;-88
2023/05/09 08:35:44;;;;;;;3.90;1.20;;;;;;;17.23;100.00;100044.63;5115508;28;20134;-87
2023/05/09 08:38:11;;;;;;;2.72;0.95;;;;;;;17.70;100.00;100044.53;5111361;28;20051;-88
2023/05/09 08:40:40;;;;;;;1.92;0.80;;;;;;;17.36;100.00;100003.00;5110077;28;20451;-87
2023/05/09 08:43:07;;;;;;;5.10;1.20;;;;;;;16.67;100.00;99993.22;5103549;28;20043;-86
2023/05/09 08:45:45;;;;;;;4.93;1.10;;;;;;;16.77;100.00;99984.56;5110146;28;20485;-87
2023/05/09 08:48:17;;;;;;;4.10;1.50;;;;;;;16.97;100.00;100012.22;5109859;28;20101;-86
2023/05/09 08:50:44;;;;;;;5.97;1.40;;;;;;;16.97;100.00;100012.22;5104720;28;20056;-86
2023/05/09 08:53:11;;;;;;;3.58;1.02;;;;;;;17.08;100.00;100025.44;5101201;28;20926;-86
2023/05/09 08:55:38;;;;;;;4.68;1.17;;;;;;;17.84;100.00;99993.97;5106928;28;20048;-86
2023/05/09 08:58:06;;;;;;;4.07;1.05;;;;;;;18.24;100.00;99995.22;5113967;28;20047;-87
2023/05/09 09:00:33;;;;;;;4.88;1.17;;;;;;;17.87;100.00;100006.16;5112222;28;20055;-86
2023/05/09 09:03:04;;;;;;;4.63;1.27;;;;;;;18.17;100.00;99971.91;5109274;28;20043;-86
2023/05/09 09:05:36;;;;;;;5.60;1.23;;;;;;;17.74;100.00;100015.06;5113646;28;20484;-86
2023/05/09 09:08:09;;;;;;;4.35;1.27;;;;;;;18.01;100.00;100030.56;5113766;28;20044;-87
2023/05/09 09:10:41;;;;;;;5.43;1.27;;;;;;;18.14;100.00;100048.13;5109591;28;20044;-86
2023/05/09 09:13:11;;;;;;;4.57;1.33;;;;;;;18.06;100.00;99998.44;5105592;28;20040;-87
2023/05/09 09:15:40;;;;;;;5.78;1.40;;;;;;;17.68;100.00;100014.69;5105759;28;20051;-87
2023/05/09 09:18:11;;;;;;;7.20;1.33;;;;;;;17.69;100.00;100054.28;5104214;28;20052;-86
2023/05/09 09:20:49;;;;;;;3.47;1.08;;;;;;;17.39;100.00;99978.97;5098481;28;20459;-86
2023/05/09 09:23:19;;;;;;;5.30;1.23;;;;;;;17.14;100.00;99990.59;5107078;28;20465;-87
2023/05/09 09:25:47;;;;;;;5.60;1.65;;;;;;;17.58;100.00;100048.97;5113957;28;20043;-86
2023/05/09 09:28:14;;;;;;;4.90;1.55;;;;;;;17.20;100.00;100013.94;5110706;28;20052;-86
2023/05/09 09:30:46;;;;;;;3.70;1.25;;;;;;;17.60;100.00;100025.84;5106740;28;20135;-87
2023/05/09 09:33:21;;;;;;;3.10;1.20;;;;;;;18.03;100.00;100011.91;5107080;28;20063;-87
2023/05/09 09:35:52;;;;;;;4.60;1.20;;;;;;;18.40;100.00;100046.03;5106296;28;20130;-87
2023/05/09 09:38:21;;;;;;;3.40;1.30;;;;;;;18.47;100.00;100055.16;5116004;28;20052;-87
2023/05/09 09:40:51;;;;;;;4.97;1.30;;;;;;;18.65;100.00;100055.47;5114310;28;20050;-86
2023/05/09 09:43:18;;;;;;;3.45;1.00;;;;;;;17.91;100.00;99983.75;5113233;28;20439;-86
2023/05/09 09:45:52;;;;;;;6.70;1.35;;;;;;;18.39;100.00;100052.28;5104232;28;20044;-85
2023/05/09 09:48:26;;;;;;;4.13;1.00;;;;;;;18.03;100.00;99994.22;5113105;28;20114;-85
2023/05/09 09:50:55;;;;;;;3.58;1.08;;;;;;;18.22;100.00;99992.72;5104347;28;20070;-85
2023/05/09 09:53:24;;;;;;;7.38;1.10;;;;;;;18.33;100.00;100028.94;5110256;28;20044;-85
2023/05/09 09:55:52;;;;;;;3.97;1.20;;;;;;;18.26;100.00;100064.88;5112747;28;20534;-85
2023/05/09 09:58:23;;;;;;;3.80;1.23;;;;;;;18.37;100.00;100059.53;5112799;28;20055;-86
2023/05/09 10:01:15;;;;;;;6.50;1.25;;;;;;;18.08;100.00;100015.03;5113030;28;20163;-86
2023/05/09 10:03:46;;;;;;;4.03;1.20;;;;;;;17.89;100.00;99959.22;5112879;28;20050;-85
2023/05/09 10:06:15;;;;;;;5.88;1.70;;;;;;;17.77;100.00;100009.50;5108883;28;20056;-84
2023/05/09 10:08:45;;;;;;;4.38;1.33;;;;;;;17.75;100.00;100015.88;5110922;28;20058;-86
2023/05/09 10:11:13;;;;;;;4.18;1.30;;;;;;;17.52;100.00;100001.81;5112535;28;20044;-85
2023/05/09 10:13:41;;;;;;;5.25;1.40;;;;;;;17.77;100.00;100028.03;5097015;28;20043;-85
2023/05/09 10:16:09;;;;;;;6.22;1.30;;;;;;;18.00;100.00;100042.13;5113253;28;20055;-86
2023/05/09 10:18:38;;;;;;;4.10;1.10;;;;;;;17.75;100.00;100003.47;5106239;28;20332;-85
2023/05/09 10:21:08;;;;;;;5.50;1.50;;;;;;;17.95;100.00;100027.56;5110890;28;20052;-85
2023/05/09 10:23:37;;;;;;;5.38;1.17;;;;;;;18.58;100.00;100067.53;5112367;28;20039;-85
2023/05/09 10:26:07;;;;;;;3.92;1.23;;;;;;;18.81;100.00;100076.25;5109669;28;20055;-85
2023/05/09 10:28:37;;;;;;;4.38;1.40;;;;;;;18.78;100.00;100053.47;5112613;28;20055;-86
2023/05/09 10:31:27;;;;;;;6.50;1.30;;;;;;;18.81;100.00;100078.91;5111239;28;20048;-85
2023/05/09 10:33:57;;;;;;;6.53;1.67;;;;;;;18.35;100.00;100027.84;5105187;28;20367;-86
2023/05/09 10:36:24;;;;;;;5.90;1.50;;;;;;;18.29;100.00;100023.06;5099283;28;20055;-86
2023/05/09 10:38:55;;;;;;;6.70;1.50;;;;;;;18.70;100.00;100087.75;5110921;28;20047;-86
2023/05/09 10:41:22;;;;;;;6.35;1.48;;;;;;;18.48;100.00;100085.16;5112293;28;20408;-84
2023/05/09 10:43:50;;;;;;;4.45;1.55;;;;;;;18.10;100.00;100059.94;5108239;28;20127;-86
2023/05/09 10:46:17;;;;;;;5.32;1.20;;;;;;;17.76;100.00;99996.38;5112352;28;20048;-85
2023/05/09 10:48:46;;;;;;;4.97;1.20;;;;;;;18.12;100.00;100048.25;5112545;28;20055;-86
2023/05/09 10:51:13;;;;;;;6.78;1.40;;;;;;;18.03;100.00;100055.13;5112952;28;20058;-85
2023/05/09 10:53:45;;;;;;;5.70;1.73;;;;;;;17.83;100.00;100069.91;5107467;28;20044;-86
2023/05/09 10:56:31;;;;;;;6.50;1.60;;;;;;;18.19;100.00;100081.22;5121412;28;20495;-91
2023/05/09 10:58:59;;;;;;;6.35;1.42;;;;;;;18.06;100.00;100027.56;5125362;28;20044;-94
2023/05/09 11:01:40;;;;;;;5.68;1.73;;;;;;;18.69;100.00;100033.03;5108519;28;20424;-91
2023/05/09 11:04:09;;;;;;;8.07;1.88;;;;;;;18.71;100.00;100003.72;5117634;28;20051;-88
2023/05/09 11:06:46;;;;;;;7.03;1.88;;;;;;;18.94;100.00;100023.06;5116195;28;20970;-88
2023/05/09 11:09:32;;;;;;;6.90;1.50;;;;;;;19.51;100.00;100072.16;5112609;28;20059;-90
2023/05/09 11:12:01;;;;;;;11.13;1.50;;;;;;;19.12;100.00;100018.84;5118068;28;20138;-92
2023/05/09 11:14:40;;;;;;;4.30;1.20;;;;;;;19.82;100.00;100081.97;5119273;28;20047;-91
2023/05/09 11:17:09;;;;;;;5.03;1.40;;;;;;;19.70;100.00;100042.19;5119381;28;20119;-91
2023/05/09 11:19:45;;;;;;;5.53;1.40;;;;;;;19.99;100.00;100081.34;5114893;28;20048;-91
2023/05/09 11:22:15;;;;;;;4.53;1.23;;;;;;;19.51;100.00;100045.63;5112528;28;20040;-91
2023/05/09 11:24:45;;;;;;;7.30;1.60;;;;;;;19.30;100.00;100076.63;5118127;28;20058;-90